sensor_id;sensor_type;location;lat;lon;timestamp;P1;durP1;ratioP1;P2;durP2;ratioP2
39728;SDS011;25402;42.004;23.088;2023-05-18T00:01:34;16.35;;;4.70;;
39728;SDS011;25402;42.004;23.088;2023-05-18T00:04:04;10.30;;;4.78;;
39728;SDS011;25402;42.004;23.088;2023-05-18T00:06:32;8.23;;;4.70;;
39728;SDS011;25402;42.004;23.088;2023-05-18T00:08:59;16.50;;;5.65;;
39728;SDS011;25402;42.004;23.088;2023-05-18T00:11:27;9.63;;;4.60;;
39728;SDS011;25402;42.004;23.088;2023-05-18T00:13:54;13.68;;;5.55;;
39728;SDS011;25402;42.004;23.088;2023-05-18T00:16:21;15.90;;;5.57;;
39728;SDS011;25402;42.004;23.088;2023-05-18T00:18:48;11.00;;;5.43;;
39728;SDS011;25402;42.004;23.088;2023-05-18T00:21:18;15.18;;;6.30;;
39728;SDS011;25402;42.004;23.088;2023-05-18T00:23:46;12.82;;;6.43;;
39728;SDS011;25402;42.004;23.088;2023-05-18T00:26:14;14.20;;;6.38;;
39728;SDS011;25402;42.004;23.088;2023-05-18T00:28:43;13.40;;;6.20;;
39728;SDS011;25402;42.004;23.088;2023-05-18T00:31:10;10.85;;;5.55;;
39728;SDS011;25402;42.004;23.088;2023-05-18T00:33:36;9.52;;;5.70;;
39728;SDS011;25402;42.004;23.088;2023-05-18T00:36:04;8.90;;;5.65;;
39728;SDS011;25402;42.004;23.088;2023-05-18T00:38:32;13.70;;;5.90;;
39728;SDS011;25402;42.004;23.088;2023-05-18T00:40:58;21.25;;;6.43;;
39728;SDS011;25402;42.004;23.088;2023-05-18T00:43:25;11.52;;;5.63;;
39728;SDS011;25402;42.004;23.088;2023-05-18T00:45:53;16.98;;;6.00;;
39728;SDS011;25402;42.004;23.088;2023-05-18T00:48:20;13.40;;;5.72;;
39728;SDS011;25402;42.004;23.088;2023-05-18T00:50:47;13.85;;;5.80;;
39728;SDS011;25402;42.004;23.088;2023-05-18T00:53:14;15.93;;;5.65;;
39728;SDS011;25402;42.004;23.088;2023-05-18T00:55:41;9.68;;;5.25;;
39728;SDS011;25402;42.004;23.088;2023-05-18T00:58:08;10.35;;;5.18;;
39728;SDS011;25402;42.004;23.088;2023-05-18T01:00:36;12.27;;;5.10;;
39728;SDS011;25402;42.004;23.088;2023-05-18T01:03:05;15.43;;;5.35;;
39728;SDS011;25402;42.004;23.088;2023-05-18T01:05:35;10.98;;;4.72;;
39728;SDS011;25402;42.004;23.088;2023-05-18T01:08:02;11.18;;;4.93;;
39728;SDS011;25402;42.004;23.088;2023-05-18T01:10:29;13.07;;;5.30;;
39728;SDS011;25402;42.004;23.088;2023-05-18T01:13:00;9.43;;;4.47;;
39728;SDS011;25402;42.004;23.088;2023-05-18T01:15:33;11.05;;;4.53;;
39728;SDS011;25402;42.004;23.088;2023-05-18T01:18:06;14.23;;;4.55;;
39728;SDS011;25402;42.004;23.088;2023-05-18T01:20:40;8.20;;;4.40;;
39728;SDS011;25402;42.004;23.088;2023-05-18T01:23:16;11.00;;;5.32;;
39728;SDS011;25402;42.004;23.088;2023-05-18T01:28:49;14.82;;;4.53;;
39728;SDS011;25402;42.004;23.088;2023-05-18T01:31:17;13.60;;;4.53;;
39728;SDS011;25402;42.004;23.088;2023-05-18T01:33:44;13.57;;;4.63;;
39728;SDS011;25402;42.004;23.088;2023-05-18T01:36:11;14.93;;;4.78;;
39728;SDS011;25402;42.004;23.088;2023-05-18T01:38:38;13.85;;;5.13;;
39728;SDS011;25402;42.004;23.088;2023-05-18T01:41:08;13.75;;;5.95;;
39728;SDS011;25402;42.004;23.088;2023-05-18T01:43:44;12.50;;;5.47;;
39728;SDS011;25402;42.004;23.088;2023-05-18T01:46:20;12.02;;;6.78;;
39728;SDS011;25402;42.004;23.088;2023-05-18T01:48:55;8.75;;;5.45;;
39728;SDS011;25402;42.004;23.088;2023-05-18T01:51:28;12.88;;;5.72;;
39728;SDS011;25402;42.004;23.088;2023-05-18T01:53:59;23.13;;;6.20;;
39728;SDS011;25402;42.004;23.088;2023-05-18T01:56:30;13.93;;;5.57;;
39728;SDS011;25402;42.004;23.088;2023-05-18T01:58:59;15.10;;;5.80;;
39728;SDS011;25402;42.004;23.088;2023-05-18T02:01:28;12.82;;;6.43;;
39728;SDS011;25402;42.004;23.088;2023-05-18T02:03:55;21.70;;;7.30;;
39728;SDS011;25402;42.004;23.088;2023-05-18T02:06:22;14.95;;;7.20;;
39728;SDS011;25402;42.004;23.088;2023-05-18T02:08:49;21.23;;;7.45;;
39728;SDS011;25402;42.004;23.088;2023-05-18T02:11:16;17.75;;;8.30;;
39728;SDS011;25402;42.004;23.088;2023-05-18T02:13:43;20.83;;;8.35;;
39728;SDS011;25402;42.004;23.088;2023-05-18T02:16:11;19.73;;;8.88;;
39728;SDS011;25402;42.004;23.088;2023-05-18T02:18:38;14.15;;;8.63;;
39728;SDS011;25402;42.004;23.088;2023-05-18T02:21:05;20.25;;;9.15;;
39728;SDS011;25402;42.004;23.088;2023-05-18T02:23:33;17.63;;;9.73;;
39728;SDS011;25402;42.004;23.088;2023-05-18T02:26:00;20.88;;;9.77;;
39728;SDS011;25402;42.004;23.088;2023-05-18T02:28:27;24.23;;;10.00;;
39728;SDS011;25402;42.004;23.088;2023-05-18T02:30:55;23.75;;;9.10;;
39728;SDS011;25402;42.004;23.088;2023-05-18T02:33:31;26.10;;;8.25;;
39728;SDS011;25402;42.004;23.088;2023-05-18T02:38:30;21.17;;;8.40;;
39728;SDS011;25402;42.004;23.088;2023-05-18T02:40:57;21.90;;;7.45;;
39728;SDS011;25402;42.004;23.088;2023-05-18T02:43:24;15.55;;;7.20;;
39728;SDS011;25402;42.004;23.088;2023-05-18T02:45:51;24.40;;;7.65;;
39728;SDS011;25402;42.004;23.088;2023-05-18T02:48:18;19.42;;;7.03;;
39728;SDS011;25402;42.004;23.088;2023-05-18T02:50:48;28.92;;;7.22;;
39728;SDS011;25402;42.004;23.088;2023-05-18T02:53:15;18.48;;;6.25;;
39728;SDS011;25402;42.004;23.088;2023-05-18T02:55:42;12.55;;;6.35;;
39728;SDS011;25402;42.004;23.088;2023-05-18T02:58:10;12.60;;;5.60;;
39728;SDS011;25402;42.004;23.088;2023-05-18T03:00:38;16.45;;;6.28;;
39728;SDS011;25402;42.004;23.088;2023-05-18T03:03:05;11.20;;;6.03;;
39728;SDS011;25402;42.004;23.088;2023-05-18T03:05:34;21.00;;;6.30;;
39728;SDS011;25402;42.004;23.088;2023-05-18T03:08:03;17.55;;;6.63;;
39728;SDS011;25402;42.004;23.088;2023-05-18T03:10:30;11.45;;;6.07;;
39728;SDS011;25402;42.004;23.088;2023-05-18T03:12:57;14.10;;;5.50;;
39728;SDS011;25402;42.004;23.088;2023-05-18T03:15:24;15.38;;;6.05;;
39728;SDS011;25402;42.004;23.088;2023-05-18T03:17:51;17.40;;;6.25;;
39728;SDS011;25402;42.004;23.088;2023-05-18T03:20:18;12.82;;;5.18;;
39728;SDS011;25402;42.004;23.088;2023-05-18T03:22:45;14.65;;;5.60;;
39728;SDS011;25402;42.004;23.088;2023-05-18T03:25:15;17.25;;;5.90;;
39728;SDS011;25402;42.004;23.088;2023-05-18T03:27:42;11.73;;;5.38;;
39728;SDS011;25402;42.004;23.088;2023-05-18T03:30:10;14.05;;;5.60;;
39728;SDS011;25402;42.004;23.088;2023-05-18T03:32:37;14.02;;;5.68;;
39728;SDS011;25402;42.004;23.088;2023-05-18T03:35:05;13.77;;;5.28;;
39728;SDS011;25402;42.004;23.088;2023-05-18T03:37:32;20.77;;;5.68;;
39728;SDS011;25402;42.004;23.088;2023-05-18T03:40:07;12.02;;;5.07;;
39728;SDS011;25402;42.004;23.088;2023-05-18T03:42:37;15.63;;;4.93;;
39728;SDS011;25402;42.004;23.088;2023-05-18T03:45:05;8.95;;;4.57;;
39728;SDS011;25402;42.004;23.088;2023-05-18T03:47:34;16.10;;;4.50;;
39728;SDS011;25402;42.004;23.088;2023-05-18T03:50:03;8.23;;;4.32;;
39728;SDS011;25402;42.004;23.088;2023-05-18T03:52:31;16.38;;;3.80;;
39728;SDS011;25402;42.004;23.088;2023-05-18T03:54:58;16.83;;;4.13;;
39728;SDS011;25402;42.004;23.088;2023-05-18T03:57:26;13.48;;;3.92;;
39728;SDS011;25402;42.004;23.088;2023-05-18T03:59:57;11.02;;;3.65;;
39728;SDS011;25402;42.004;23.088;2023-05-18T04:02:24;10.45;;;3.53;;
39728;SDS011;25402;42.004;23.088;2023-05-18T04:04:51;16.85;;;4.40;;
39728;SDS011;25402;42.004;23.088;2023-05-18T04:07:19;13.02;;;4.75;;
39728;SDS011;25402;42.004;23.088;2023-05-18T04:09:48;20.30;;;7.65;;
39728;SDS011;25402;42.004;23.088;2023-05-18T04:12:15;14.48;;;4.95;;
39728;SDS011;25402;42.004;23.088;2023-05-18T04:14:42;18.00;;;4.75;;
39728;SDS011;25402;42.004;23.088;2023-05-18T04:17:16;21.60;;;9.77;;
39728;SDS011;25402;42.004;23.088;2023-05-18T04:19:46;7.07;;;3.80;;
39728;SDS011;25402;42.004;23.088;2023-05-18T04:22:13;15.50;;;5.47;;
39728;SDS011;25402;42.004;23.088;2023-05-18T04:24:40;12.27;;;4.68;;
39728;SDS011;25402;42.004;23.088;2023-05-18T04:27:09;17.83;;;6.47;;
39728;SDS011;25402;42.004;23.088;2023-05-18T04:29:37;15.27;;;5.57;;
39728;SDS011;25402;42.004;23.088;2023-05-18T04:32:04;18.92;;;6.82;;
39728;SDS011;25402;42.004;23.088;2023-05-18T04:34:34;15.95;;;5.60;;
39728;SDS011;25402;42.004;23.088;2023-05-18T04:37:01;18.45;;;6.22;;
39728;SDS011;25402;42.004;23.088;2023-05-18T04:39:29;18.55;;;5.78;;
39728;SDS011;25402;42.004;23.088;2023-05-18T04:41:57;14.07;;;7.93;;
39728;SDS011;25402;42.004;23.088;2023-05-18T04:44:24;14.38;;;6.28;;
39728;SDS011;25402;42.004;23.088;2023-05-18T04:46:51;11.63;;;6.05;;
39728;SDS011;25402;42.004;23.088;2023-05-18T04:49:18;26.92;;;9.82;;
39728;SDS011;25402;42.004;23.088;2023-05-18T04:51:48;17.10;;;7.00;;
39728;SDS011;25402;42.004;23.088;2023-05-18T04:54:20;18.93;;;8.50;;
39728;SDS011;25402;42.004;23.088;2023-05-18T04:56:48;14.68;;;7.30;;
39728;SDS011;25402;42.004;23.088;2023-05-18T04:59:15;14.93;;;6.70;;
39728;SDS011;25402;42.004;23.088;2023-05-18T05:01:42;12.32;;;5.88;;
39728;SDS011;25402;42.004;23.088;2023-05-18T05:04:09;21.58;;;7.03;;
39728;SDS011;25402;42.004;23.088;2023-05-18T05:06:36;9.52;;;4.97;;
39728;SDS011;25402;42.004;23.088;2023-05-18T05:09:04;12.32;;;6.03;;
39728;SDS011;25402;42.004;23.088;2023-05-18T05:11:32;17.65;;;5.47;;
39728;SDS011;25402;42.004;23.088;2023-05-18T05:13:59;15.52;;;5.90;;
39728;SDS011;25402;42.004;23.088;2023-05-18T05:16:26;15.43;;;4.82;;
39728;SDS011;25402;42.004;23.088;2023-05-18T05:18:53;14.88;;;5.00;;
39728;SDS011;25402;42.004;23.088;2023-05-18T05:21:20;12.93;;;5.88;;
39728;SDS011;25402;42.004;23.088;2023-05-18T05:23:49;16.42;;;5.00;;
39728;SDS011;25402;42.004;23.088;2023-05-18T05:26:17;12.20;;;4.78;;
39728;SDS011;25402;42.004;23.088;2023-05-18T05:28:45;13.45;;;5.32;;
39728;SDS011;25402;42.004;23.088;2023-05-18T05:31:12;11.18;;;4.70;;
39728;SDS011;25402;42.004;23.088;2023-05-18T05:33:39;17.20;;;4.93;;
39728;SDS011;25402;42.004;23.088;2023-05-18T05:36:06;8.68;;;4.60;;
39728;SDS011;25402;42.004;23.088;2023-05-18T05:38:34;14.27;;;4.88;;
39728;SDS011;25402;42.004;23.088;2023-05-18T05:41:00;10.82;;;4.60;;
39728;SDS011;25402;42.004;23.088;2023-05-18T05:43:29;14.10;;;3.70;;
39728;SDS011;25402;42.004;23.088;2023-05-18T05:45:55;9.77;;;3.65;;
39728;SDS011;25402;42.004;23.088;2023-05-18T05:48:22;9.95;;;4.05;;
39728;SDS011;25402;42.004;23.088;2023-05-18T05:50:49;15.13;;;5.00;;
39728;SDS011;25402;42.004;23.088;2023-05-18T05:53:16;11.70;;;4.65;;
39728;SDS011;25402;42.004;23.088;2023-05-18T05:55:43;9.48;;;4.90;;
39728;SDS011;25402;42.004;23.088;2023-05-18T05:58:10;11.93;;;5.00;;
39728;SDS011;25402;42.004;23.088;2023-05-18T06:00:40;18.65;;;4.03;;
39728;SDS011;25402;42.004;23.088;2023-05-18T06:03:07;15.38;;;3.97;;
39728;SDS011;25402;42.004;23.088;2023-05-18T06:05:34;8.15;;;2.78;;
39728;SDS011;25402;42.004;23.088;2023-05-18T06:08:01;12.23;;;3.13;;
39728;SDS011;25402;42.004;23.088;2023-05-18T06:10:28;9.07;;;3.53;;
39728;SDS011;25402;42.004;23.088;2023-05-18T06:12:56;9.13;;;3.40;;
39728;SDS011;25402;42.004;23.088;2023-05-18T06:15:23;8.05;;;3.03;;
39728;SDS011;25402;42.004;23.088;2023-05-18T06:17:51;5.93;;;2.47;;
39728;SDS011;25402;42.004;23.088;2023-05-18T06:20:18;5.47;;;1.90;;
39728;SDS011;25402;42.004;23.088;2023-05-18T06:22:45;8.98;;;1.80;;
39728;SDS011;25402;42.004;23.088;2023-05-18T06:25:12;10.48;;;2.20;;
39728;SDS011;25402;42.004;23.088;2023-05-18T06:27:39;5.65;;;1.85;;
39728;SDS011;25402;42.004;23.088;2023-05-18T06:30:08;8.85;;;1.80;;
39728;SDS011;25402;42.004;23.088;2023-05-18T06:32:36;11.32;;;2.17;;
39728;SDS011;25402;42.004;23.088;2023-05-18T06:35:05;7.82;;;1.85;;
39728;SDS011;25402;42.004;23.088;2023-05-18T06:37:33;7.13;;;2.60;;
39728;SDS011;25402;42.004;23.088;2023-05-18T06:40:00;5.15;;;1.70;;
39728;SDS011;25402;42.004;23.088;2023-05-18T06:42:30;8.35;;;1.65;;
39728;SDS011;25402;42.004;23.088;2023-05-18T06:44:57;5.82;;;1.55;;
39728;SDS011;25402;42.004;23.088;2023-05-18T06:47:24;9.68;;;1.60;;
39728;SDS011;25402;42.004;23.088;2023-05-18T06:49:51;6.07;;;1.52;;
39728;SDS011;25402;42.004;23.088;2023-05-18T06:52:19;4.43;;;1.83;;
39728;SDS011;25402;42.004;23.088;2023-05-18T06:54:46;2.78;;;1.23;;
39728;SDS011;25402;42.004;23.088;2023-05-18T06:57:13;6.40;;;2.00;;
39728;SDS011;25402;42.004;23.088;2023-05-18T06:59:40;2.45;;;1.55;;
39728;SDS011;25402;42.004;23.088;2023-05-18T07:02:07;6.88;;;2.58;;
39728;SDS011;25402;42.004;23.088;2023-05-18T07:04:34;5.55;;;2.17;;
39728;SDS011;25402;42.004;23.088;2023-05-18T07:07:01;5.10;;;2.28;;
39728;SDS011;25402;42.004;23.088;2023-05-18T07:09:38;4.00;;;2.00;;
39728;SDS011;25402;42.004;23.088;2023-05-18T07:12:06;5.25;;;1.98;;
39728;SDS011;25402;42.004;23.088;2023-05-18T07:14:34;6.05;;;2.28;;
39728;SDS011;25402;42.004;23.088;2023-05-18T07:17:00;2.45;;;1.88;;
39728;SDS011;25402;42.004;23.088;2023-05-18T07:19:28;1.65;;;1.25;;
39728;SDS011;25402;42.004;23.088;2023-05-18T07:21:55;3.10;;;1.58;;
39728;SDS011;25402;42.004;23.088;2023-05-18T07:24:23;5.78;;;1.52;;
39728;SDS011;25402;42.004;23.088;2023-05-18T07:26:53;7.20;;;1.75;;
39728;SDS011;25402;42.004;23.088;2023-05-18T07:29:20;3.97;;;1.80;;
39728;SDS011;25402;42.004;23.088;2023-05-18T07:31:46;3.00;;;1.83;;
39728;SDS011;25402;42.004;23.088;2023-05-18T07:34:13;2.60;;;1.65;;
39728;SDS011;25402;42.004;23.088;2023-05-18T07:36:42;7.00;;;2.10;;
39728;SDS011;25402;42.004;23.088;2023-05-18T07:39:09;5.45;;;2.25;;
39728;SDS011;25402;42.004;23.088;2023-05-18T07:41:42;3.53;;;2.00;;
39728;SDS011;25402;42.004;23.088;2023-05-18T07:46:36;6.33;;;1.83;;
39728;SDS011;25402;42.004;23.088;2023-05-18T07:49:03;5.72;;;1.92;;
39728;SDS011;25402;42.004;23.088;2023-05-18T07:51:30;8.88;;;2.45;;
39728;SDS011;25402;42.004;23.088;2023-05-18T07:53:57;3.72;;;2.03;;
39728;SDS011;25402;42.004;23.088;2023-05-18T07:56:24;3.85;;;1.90;;
39728;SDS011;25402;42.004;23.088;2023-05-18T07:58:51;8.98;;;2.33;;
39728;SDS011;25402;42.004;23.088;2023-05-18T08:01:18;7.50;;;2.05;;
39728;SDS011;25402;42.004;23.088;2023-05-18T08:03:47;8.60;;;2.25;;
39728;SDS011;25402;42.004;23.088;2023-05-18T08:06:14;3.45;;;2.15;;
39728;SDS011;25402;42.004;23.088;2023-05-18T08:08:41;10.18;;;2.20;;
39728;SDS011;25402;42.004;23.088;2023-05-18T08:11:08;3.38;;;2.00;;
39728;SDS011;25402;42.004;23.088;2023-05-18T08:13:35;7.55;;;1.95;;
39728;SDS011;25402;42.004;23.088;2023-05-18T08:16:02;2.80;;;1.92;;
39728;SDS011;25402;42.004;23.088;2023-05-18T08:18:29;2.40;;;1.65;;
39728;SDS011;25402;42.004;23.088;2023-05-18T08:20:57;6.05;;;2.08;;
39728;SDS011;25402;42.004;23.088;2023-05-18T08:23:24;4.00;;;1.80;;
39728;SDS011;25402;42.004;23.088;2023-05-18T08:25:51;4.93;;;1.67;;
39728;SDS011;25402;42.004;23.088;2023-05-18T08:28:18;3.67;;;2.08;;
39728;SDS011;25402;42.004;23.088;2023-05-18T08:30:45;4.63;;;2.10;;
39728;SDS011;25402;42.004;23.088;2023-05-18T08:33:12;2.83;;;1.95;;
39728;SDS011;25402;42.004;23.088;2023-05-18T08:35:39;10.23;;;1.67;;
39728;SDS011;25402;42.004;23.088;2023-05-18T08:38:08;6.25;;;2.15;;
39728;SDS011;25402;42.004;23.088;2023-05-18T08:40:36;5.53;;;1.50;;
39728;SDS011;25402;42.004;23.088;2023-05-18T08:43:10;2.97;;;1.52;;
39728;SDS011;25402;42.004;23.088;2023-05-18T08:45:44;4.60;;;2.05;;
39728;SDS011;25402;42.004;23.088;2023-05-18T08:48:14;18.02;;;1.88;;
39728;SDS011;25402;42.004;23.088;2023-05-18T08:50:41;2.90;;;1.67;;
39728;SDS011;25402;42.004;23.088;2023-05-18T08:53:12;5.68;;;1.90;;
39728;SDS011;25402;42.004;23.088;2023-05-18T08:55:40;4.13;;;1.80;;
39728;SDS011;25402;42.004;23.088;2023-05-18T08:58:09;3.28;;;1.58;;
39728;SDS011;25402;42.004;23.088;2023-05-18T09:00:42;2.45;;;1.50;;
39728;SDS011;25402;42.004;23.088;2023-05-18T09:03:10;3.72;;;1.45;;
39728;SDS011;25402;42.004;23.088;2023-05-18T09:05:38;7.50;;;1.70;;
39728;SDS011;25402;42.004;23.088;2023-05-18T09:08:06;1.60;;;1.40;;
39728;SDS011;25402;42.004;23.088;2023-05-18T09:10:38;6.20;;;1.77;;
39728;SDS011;25402;42.004;23.088;2023-05-18T09:13:06;5.40;;;2.05;;
39728;SDS011;25402;42.004;23.088;2023-05-18T09:15:35;2.75;;;1.90;;
39728;SDS011;25402;42.004;23.088;2023-05-18T09:18:02;4.82;;;2.22;;
39728;SDS011;25402;42.004;23.088;2023-05-18T09:20:30;5.20;;;2.33;;
39728;SDS011;25402;42.004;23.088;2023-05-18T09:22:57;3.85;;;2.17;;
39728;SDS011;25402;42.004;23.088;2023-05-18T09:25:27;6.70;;;2.38;;
39728;SDS011;25402;42.004;23.088;2023-05-18T09:28:01;3.05;;;2.38;;
39728;SDS011;25402;42.004;23.088;2023-05-18T09:30:29;7.43;;;2.65;;
39728;SDS011;25402;42.004;23.088;2023-05-18T09:33:05;4.93;;;2.88;;
39728;SDS011;25402;42.004;23.088;2023-05-18T09:35:45;7.20;;;3.60;;
39728;SDS011;25402;42.004;23.088;2023-05-18T09:38:14;5.10;;;2.97;;
39728;SDS011;25402;42.004;23.088;2023-05-18T09:40:46;5.10;;;3.42;;
39728;SDS011;25402;42.004;23.088;2023-05-18T09:43:17;7.18;;;3.10;;
39728;SDS011;25402;42.004;23.088;2023-05-18T09:45:45;8.65;;;3.58;;
39728;SDS011;25402;42.004;23.088;2023-05-18T09:48:14;7.65;;;3.10;;
39728;SDS011;25402;42.004;23.088;2023-05-18T09:50:41;6.72;;;3.08;;
39728;SDS011;25402;42.004;23.088;2023-05-18T09:53:09;5.22;;;3.33;;
39728;SDS011;25402;42.004;23.088;2023-05-18T09:55:43;7.25;;;3.40;;
39728;SDS011;25402;42.004;23.088;2023-05-18T09:58:12;8.52;;;3.63;;
39728;SDS011;25402;42.004;23.088;2023-05-18T10:00:41;7.30;;;3.08;;
39728;SDS011;25402;42.004;23.088;2023-05-18T10:03:18;5.35;;;2.72;;
39728;SDS011;25402;42.004;23.088;2023-05-18T10:05:47;5.63;;;3.10;;
39728;SDS011;25402;42.004;23.088;2023-05-18T10:08:15;5.15;;;3.05;;
39728;SDS011;25402;42.004;23.088;2023-05-18T10:10:46;5.20;;;3.38;;
39728;SDS011;25402;42.004;23.088;2023-05-18T10:13:15;7.30;;;2.83;;
39728;SDS011;25402;42.004;23.088;2023-05-18T10:15:47;7.18;;;3.25;;
39728;SDS011;25402;42.004;23.088;2023-05-18T10:18:19;7.17;;;3.20;;
39728;SDS011;25402;42.004;23.088;2023-05-18T10:20:48;7.70;;;3.30;;
39728;SDS011;25402;42.004;23.088;2023-05-18T10:23:16;8.35;;;3.15;;
39728;SDS011;25402;42.004;23.088;2023-05-18T10:25:45;6.40;;;3.60;;
39728;SDS011;25402;42.004;23.088;2023-05-18T10:28:17;9.93;;;4.05;;
39728;SDS011;25402;42.004;23.088;2023-05-18T10:30:51;6.07;;;3.50;;
39728;SDS011;25402;42.004;23.088;2023-05-18T10:33:21;5.82;;;3.13;;
39728;SDS011;25402;42.004;23.088;2023-05-18T10:35:49;10.32;;;4.30;;
39728;SDS011;25402;42.004;23.088;2023-05-18T10:38:20;8.13;;;3.65;;
39728;SDS011;25402;42.004;23.088;2023-05-18T10:40:50;7.43;;;3.53;;
39728;SDS011;25402;42.004;23.088;2023-05-18T10:43:18;9.73;;;4.07;;
39728;SDS011;25402;42.004;23.088;2023-05-18T10:45:46;12.93;;;3.63;;
39728;SDS011;25402;42.004;23.088;2023-05-18T10:48:20;9.23;;;3.73;;
39728;SDS011;25402;42.004;23.088;2023-05-18T10:50:49;8.18;;;3.40;;
39728;SDS011;25402;42.004;23.088;2023-05-18T10:53:20;8.02;;;3.63;;
39728;SDS011;25402;42.004;23.088;2023-05-18T10:55:48;6.30;;;3.60;;
39728;SDS011;25402;42.004;23.088;2023-05-18T10:58:16;7.53;;;3.60;;
39728;SDS011;25402;42.004;23.088;2023-05-18T11:00:46;6.60;;;3.78;;
39728;SDS011;25402;42.004;23.088;2023-05-18T11:03:16;6.70;;;3.83;;
39728;SDS011;25402;42.004;23.088;2023-05-18T11:05:49;6.18;;;3.90;;
39728;SDS011;25402;42.004;23.088;2023-05-18T11:11:00;3.95;;;3.25;;
39728;SDS011;25402;42.004;23.088;2023-05-18T11:13:29;7.13;;;3.63;;
39728;SDS011;25402;42.004;23.088;2023-05-18T11:16:04;7.53;;;3.05;;
39728;SDS011;25402;42.004;23.088;2023-05-18T11:18:39;5.25;;;3.50;;
39728;SDS011;25402;42.004;23.088;2023-05-18T11:21:19;6.55;;;3.63;;
39728;SDS011;25402;42.004;23.088;2023-05-18T11:24:14;8.63;;;4.47;;
39728;SDS011;25402;42.004;23.088;2023-05-18T11:26:44;6.38;;;2.83;;
39728;SDS011;25402;42.004;23.088;2023-05-18T11:29:15;4.53;;;1.80;;
39728;SDS011;25402;42.004;23.088;2023-05-18T11:31:43;4.28;;;1.67;;
39728;SDS011;25402;42.004;23.088;2023-05-18T11:37:10;1.63;;;1.30;;
39728;SDS011;25402;42.004;23.088;2023-05-18T11:39:38;6.75;;;2.03;;
39728;SDS011;25402;42.004;23.088;2023-05-18T11:42:07;3.28;;;1.83;;
39728;SDS011;25402;42.004;23.088;2023-05-18T11:44:35;10.48;;;2.50;;
39728;SDS011;25402;42.004;23.088;2023-05-18T11:47:06;4.90;;;3.00;;
39728;SDS011;25402;42.004;23.088;2023-05-18T11:49:35;21.65;;;4.35;;
39728;SDS011;25402;42.004;23.088;2023-05-18T11:52:08;7.28;;;3.70;;
39728;SDS011;25402;42.004;23.088;2023-05-18T11:54:43;8.05;;;4.20;;
39728;SDS011;25402;42.004;23.088;2023-05-18T11:57:12;7.07;;;4.20;;
39728;SDS011;25402;42.004;23.088;2023-05-18T11:59:41;8.45;;;3.88;;
39728;SDS011;25402;42.004;23.088;2023-05-18T12:02:11;13.07;;;4.57;;
39728;SDS011;25402;42.004;23.088;2023-05-18T12:04:41;10.65;;;6.82;;
39728;SDS011;25402;42.004;23.088;2023-05-18T12:07:10;20.65;;;10.85;;
39728;SDS011;25402;42.004;23.088;2023-05-18T12:09:42;14.90;;;8.10;;
39728;SDS011;25402;42.004;23.088;2023-05-18T12:12:10;20.45;;;8.07;;
39728;SDS011;25402;42.004;23.088;2023-05-18T12:14:39;8.18;;;4.45;;
39728;SDS011;25402;42.004;23.088;2023-05-18T12:17:07;8.20;;;4.55;;
39728;SDS011;25402;42.004;23.088;2023-05-18T12:19:40;5.25;;;3.75;;
39728;SDS011;25402;42.004;23.088;2023-05-18T12:22:08;4.03;;;3.13;;
39728;SDS011;25402;42.004;23.088;2023-05-18T12:24:35;6.90;;;3.05;;
39728;SDS011;25402;42.004;23.088;2023-05-18T12:27:04;49.00;;;25.02;;
39728;SDS011;25402;42.004;23.088;2023-05-18T12:29:32;9.65;;;4.10;;
39728;SDS011;25402;42.004;23.088;2023-05-18T12:32:03;19.70;;;10.00;;
39728;SDS011;25402;42.004;23.088;2023-05-18T12:34:31;7.60;;;2.30;;
39728;SDS011;25402;42.004;23.088;2023-05-18T12:36:58;14.63;;;2.28;;
39728;SDS011;25402;42.004;23.088;2023-05-18T12:39:25;4.05;;;2.13;;
39728;SDS011;25402;42.004;23.088;2023-05-18T12:41:52;7.95;;;2.47;;
39728;SDS011;25402;42.004;23.088;2023-05-18T12:44:21;7.95;;;3.85;;
39728;SDS011;25402;42.004;23.088;2023-05-18T12:46:48;7.10;;;2.38;;
39728;SDS011;25402;42.004;23.088;2023-05-18T12:49:16;8.68;;;3.90;;
39728;SDS011;25402;42.004;23.088;2023-05-18T12:51:44;6.50;;;2.90;;
39728;SDS011;25402;42.004;23.088;2023-05-18T12:56:48;8.07;;;3.78;;
39728;SDS011;25402;42.004;23.088;2023-05-18T12:59:16;6.88;;;3.47;;
39728;SDS011;25402;42.004;23.088;2023-05-18T13:01:45;6.75;;;3.60;;
39728;SDS011;25402;42.004;23.088;2023-05-18T13:04:13;4.82;;;3.05;;
39728;SDS011;25402;42.004;23.088;2023-05-18T13:06:40;5.65;;;2.90;;
39728;SDS011;25402;42.004;23.088;2023-05-18T13:09:07;5.28;;;3.30;;
39728;SDS011;25402;42.004;23.088;2023-05-18T13:11:48;11.90;;;3.75;;
39728;SDS011;25402;42.004;23.088;2023-05-18T13:14:19;7.10;;;3.25;;
39728;SDS011;25402;42.004;23.088;2023-05-18T13:16:50;10.75;;;3.45;;
39728;SDS011;25402;42.004;23.088;2023-05-18T13:19:17;8.45;;;3.10;;
39728;SDS011;25402;42.004;23.088;2023-05-18T13:21:45;9.88;;;3.30;;
39728;SDS011;25402;42.004;23.088;2023-05-18T13:24:12;12.18;;;3.03;;
39728;SDS011;25402;42.004;23.088;2023-05-18T13:26:39;9.15;;;2.53;;
39728;SDS011;25402;42.004;23.088;2023-05-18T13:29:06;7.53;;;2.30;;
39728;SDS011;25402;42.004;23.088;2023-05-18T13:31:33;6.53;;;2.40;;
39728;SDS011;25402;42.004;23.088;2023-05-18T13:34:02;12.45;;;2.80;;
39728;SDS011;25402;42.004;23.088;2023-05-18T13:36:30;8.48;;;2.53;;
39728;SDS011;25402;42.004;23.088;2023-05-18T13:39:00;5.43;;;2.75;;
39728;SDS011;25402;42.004;23.088;2023-05-18T13:41:30;6.40;;;2.25;;
39728;SDS011;25402;42.004;23.088;2023-05-18T13:43:57;13.65;;;3.28;;
39728;SDS011;25402;42.004;23.088;2023-05-18T13:46:24;5.95;;;2.33;;
39728;SDS011;25402;42.004;23.088;2023-05-18T13:48:51;6.97;;;2.25;;
39728;SDS011;25402;42.004;23.088;2023-05-18T13:51:19;7.38;;;2.20;;
39728;SDS011;25402;42.004;23.088;2023-05-18T13:53:46;10.98;;;2.75;;
39728;SDS011;25402;42.004;23.088;2023-05-18T13:56:13;4.68;;;2.10;;
39728;SDS011;25402;42.004;23.088;2023-05-18T13:58:40;5.55;;;2.10;;
39728;SDS011;25402;42.004;23.088;2023-05-18T14:01:10;5.57;;;2.05;;
39728;SDS011;25402;42.004;23.088;2023-05-18T14:03:38;12.27;;;2.22;;
39728;SDS011;25402;42.004;23.088;2023-05-18T14:06:05;6.95;;;2.40;;
39728;SDS011;25402;42.004;23.088;2023-05-18T14:08:33;6.70;;;2.33;;
39728;SDS011;25402;42.004;23.088;2023-05-18T14:11:00;6.70;;;2.50;;
39728;SDS011;25402;42.004;23.088;2023-05-18T14:13:27;8.38;;;2.97;;
39728;SDS011;25402;42.004;23.088;2023-05-18T14:15:54;11.10;;;2.60;;
39728;SDS011;25402;42.004;23.088;2023-05-18T14:18:21;3.53;;;1.88;;
39728;SDS011;25402;42.004;23.088;2023-05-18T14:20:48;8.43;;;2.30;;
39728;SDS011;25402;42.004;23.088;2023-05-18T14:23:15;6.03;;;2.72;;
39728;SDS011;25402;42.004;23.088;2023-05-18T14:25:43;8.63;;;2.42;;
39728;SDS011;25402;42.004;23.088;2023-05-18T14:28:10;5.03;;;2.75;;
39728;SDS011;25402;42.004;23.088;2023-05-18T14:30:37;11.43;;;3.05;;
39728;SDS011;25402;42.004;23.088;2023-05-18T14:33:04;8.43;;;2.50;;
39728;SDS011;25402;42.004;23.088;2023-05-18T14:35:31;6.60;;;3.20;;
39728;SDS011;25402;42.004;23.088;2023-05-18T14:37:58;9.10;;;2.80;;
39728;SDS011;25402;42.004;23.088;2023-05-18T14:40:25;13.93;;;2.47;;
39728;SDS011;25402;42.004;23.088;2023-05-18T14:42:53;6.78;;;2.45;;
39728;SDS011;25402;42.004;23.088;2023-05-18T14:45:20;10.90;;;2.90;;
39728;SDS011;25402;42.004;23.088;2023-05-18T14:47:47;6.35;;;2.75;;
39728;SDS011;25402;42.004;23.088;2023-05-18T14:50:14;5.18;;;2.28;;
39728;SDS011;25402;42.004;23.088;2023-05-18T14:52:40;6.50;;;2.50;;